Autryville, North Carolina
Current Conditions -  °F | °C
As of 10:53 PM on Wednesday 22 Oct 2014 (Local Time) from KFAY Reporting Station
Clear Clear  
Wind Chill: 55°   Ceiling: Unl
Heat Index: 55°   Visibility: 10mi
Dew Point: 41°   Wind: 9mph
Humidity: 59%   Direction: 290°WNW
Pressure: 30.04"   Gusts: NA
Location:  35°N, 78.64°W
Report Text: KFAY 230253Z AUTO 29008KT 10SM CLR 13/05 A3004 RMK AO2 SLP166 T01280050 52014
Loading
Personal Weather Stations






























Interactive Weather Map
Tropical Storm Tracking
New forecast layout! Learn more

10-Day Weather Forecast

Advertisements
Track Severe Weather on mobile